Time;durP1;ratioP1;P1;durP2;ratioP2;P2;SDS_P1;SDS_P2;PMS_P1;PMS_P2;Temp;Humidity;BMP_temperature;BMP_pressure;BME280_temperature;BME280_humidity;BME280_pressure;Samples;Min_cycle;Max_cycle;Signal;HPM_P1;HPM_P2
2023/05/31 00:00:57;;;;;;;;;;;;;;;20.94;69.87;100826.00;7396513;19;1369;-47
2023/05/31 00:03:25;;;;;;;;;;;;;;;20.82;70.06;100816.44;7395846;19;1493;-47
2023/05/31 00:05:53;;;;;;;;;;;;;;;20.90;69.86;100835.38;7396993;19;1845;-48
2023/05/31 00:08:24;;;;;;;;;;;;;;;20.92;70.20;100827.16;7395549;19;1518;-47
2023/05/31 00:10:52;;;;;;;;;;;;;;;20.85;70.25;100811.63;7396857;19;1245;-47
2023/05/31 00:13:21;;;;;;;;;;;;;;;20.86;70.08;100823.22;7397625;19;1520;-48
2023/05/31 00:15:49;;;;;;;;;;;;;;;20.94;69.66;100826.00;7397077;19;1459;-47
2023/05/31 00:18:17;;;;;;;;;;;;;;;20.89;69.88;100828.31;7397320;19;1458;-47
2023/05/31 00:20:46;;;;;;;;;;;;;;;20.87;69.86;100822.22;7396586;19;1481;-47
2023/05/31 00:23:14;;;;;;;;;;;;;;;20.86;69.97;100805.22;7396096;19;1456;-47
2023/05/31 00:25:45;;;;;;;;;;;;;;;20.91;69.33;100829.00;7396920;19;1873;-47
2023/05/31 00:28:14;;;;;;;;;;;;;;;20.90;69.96;100813.84;7397019;19;1422;-47
2023/05/31 00:30:42;;;;;;;;;;;;;;;20.83;69.92;100831.56;7396025;19;1456;-48
2023/05/31 00:33:10;;;;;;;;;;;;;;;20.86;70.13;100840.19;7396462;19;1576;-47
2023/05/31 00:35:39;;;;;;;;;;;;;;;20.88;69.89;100829.28;7397410;19;1450;-48
2023/05/31 00:38:08;;;;;;;;;;;;;;;20.87;69.81;100835.66;7396506;19;1631;-48
2023/05/31 00:40:36;;;;;;;;;;;;;;;20.92;69.54;100838.75;7395445;19;1433;-48
2023/05/31 00:43:07;;;;;;;;;;;;;;;20.91;69.40;100836.19;7395511;19;1535;-48
2023/05/31 00:45:36;;;;;;;;;;;;;;;20.86;69.59;100826.72;7395632;19;1862;-48
2023/05/31 00:48:05;;;;;;;;;;;;;;;20.87;69.63;100830.28;7395654;19;1248;-48
2023/05/31 00:50:33;;;;;;;;;;;;;;;20.85;69.87;100822.38;7396010;19;1446;-50
2023/05/31 00:53:02;;;;;;;;;;;;;;;20.87;69.67;100835.66;7394930;19;1438;-47
2023/05/31 00:55:31;;;;;;;;;;;;;;;20.83;69.38;100826.19;7394181;19;1269;-47
2023/05/31 00:58:00;;;;;;;;;;;;;;;20.89;69.30;100838.19;7395498;19;1661;-47
2023/05/31 01:00:33;;;;;;;;;;;;;;;20.89;69.42;100839.06;7395809;19;1524;-47
2023/05/31 01:03:02;;;;;;;;;;;;;;;20.84;69.76;100830.56;7395451;19;1492;-47
2023/05/31 01:05:31;;;;;;;;;;;;;;;20.86;69.27;100836.66;7396259;19;1477;-47
2023/05/31 01:07:59;;;;;;;;;;;;;;;20.82;69.86;100829.88;7392383;19;1853;-47
2023/05/31 01:10:28;;;;;;;;;;;;;;;20.84;69.17;100841.31;7395196;19;1373;-47
2023/05/31 01:13:03;;;;;;;;;;;;;;;20.83;69.35;100823.50;7393910;19;1513;-47
2023/05/31 01:15:36;;;;;;;;;;;;;;;20.86;69.53;100839.34;7395940;19;1541;-47
2023/05/31 01:18:09;;;;;;;;;;;;;;;20.76;69.22;100850.09;7395411;19;1466;-47
2023/05/31 01:20:38;;;;;;;;;;;;;;;20.81;69.11;100846.97;7396450;19;1316;-47
2023/05/31 01:23:07;;;;;;;;;;;;;;;20.83;69.15;100851.25;7392033;19;1495;-48
2023/05/31 01:25:48;;;;;;;;;;;;;;;20.82;69.13;100832.56;7392922;19;1438;-47
2023/05/31 01:28:19;;;;;;;;;;;;;;;20.88;68.97;100866.06;7395963;19;1540;-47
2023/05/31 01:30:48;;;;;;;;;;;;;;;20.84;68.96;100852.06;7393356;19;1446;-47
2023/05/31 01:33:16;;;;;;;;;;;;;;;20.82;69.06;100864.81;7393945;19;1604;-47
2023/05/31 01:35:45;;;;;;;;;;;;;;;20.82;69.09;100848.69;7395613;19;1374;-47
2023/05/31 01:38:13;;;;;;;;;;;;;;;20.81;68.88;100857.72;7393290;19;1470;-47
2023/05/31 01:40:42;;;;;;;;;;;;;;;20.83;68.90;100856.63;7393820;19;1509;-48
2023/05/31 01:43:11;;;;;;;;;;;;;;;20.75;69.10;100843.06;7394036;19;1280;-48
2023/05/31 01:45:43;;;;;;;;;;;;;;;20.78;69.07;100860.72;7392956;19;1537;-47
2023/05/31 01:48:12;;;;;;;;;;;;;;;20.74;69.04;100845.88;7391157;19;1848;-47
2023/05/31 01:50:42;;;;;;;;;;;;;;;20.76;68.64;100849.28;7393820;19;1276;-47
2023/05/31 01:53:10;;;;;;;;;;;;;;;20.77;68.71;100859.00;7392506;19;1430;-47
2023/05/31 01:55:38;;;;;;;;;;;;;;;20.72;68.77;100848.72;7394017;19;1393;-48
2023/05/31 01:58:07;;;;;;;;;;;;;;;20.77;68.49;100877.81;7393505;19;1192;-47
2023/05/31 02:00:37;;;;;;;;;;;;;;;20.73;69.09;100855.78;7393429;19;1426;-47
2023/05/31 02:03:08;;;;;;;;;;;;;;;20.74;68.90;100872.75;7393088;19;1226;-47
2023/05/31 02:05:37;;;;;;;;;;;;;;;20.75;68.58;100850.25;7394860;19;1454;-48
2023/05/31 02:08:05;;;;;;;;;;;;;;;20.73;68.44;100860.28;7398051;19;1850;-47
2023/05/31 02:10:34;;;;;;;;;;;;;;;20.70;68.64;100860.59;7400844;19;1358;-47
2023/05/31 02:13:02;;;;;;;;;;;;;;;20.76;68.53;100851.97;7400346;19;1238;-47
2023/05/31 02:15:30;;;;;;;;;;;;;;;20.66;68.51;100868.94;7399913;19;1552;-47
2023/05/31 02:17:58;;;;;;;;;;;;;;;20.73;68.41;100854.91;7400523;19;1967;-47
2023/05/31 02:20:29;;;;;;;;;;;;;;;20.75;68.58;100858.31;7400091;19;1493;-47
2023/05/31 02:22:58;;;;;;;;;;;;;;;20.70;68.15;100882.94;7400028;19;1239;-47
2023/05/31 02:25:26;;;;;;;;;;;;;;;20.73;68.51;100871.03;7396828;19;1474;-47
2023/05/31 02:27:54;;;;;;;;;;;;;;;20.70;68.47;100893.69;7399789;19;1857;-47
2023/05/31 02:30:23;;;;;;;;;;;;;;;20.69;68.55;100881.25;7400701;19;1544;-47
2023/05/31 02:32:51;;;;;;;;;;;;;;;20.65;68.40;100894.13;7401049;19;1565;-47
2023/05/31 02:35:19;;;;;;;;;;;;;;;20.64;68.60;100894.25;7399680;19;1935;-47
2023/05/31 02:37:50;;;;;;;;;;;;;;;20.68;68.03;100878.72;7399070;19;1490;-47
2023/05/31 02:40:18;;;;;;;;;;;;;;;20.22;68.02;100814.81;7400214;19;1541;-48
2023/05/31 02:42:47;;;;;;;;;;;;;;;20.68;68.22;100894.84;7400895;19;1829;-47
2023/05/31 02:45:15;;;;;;;;;;;;;;;20.65;68.23;100869.94;7400008;19;1607;-47
2023/05/31 02:47:44;;;;;;;;;;;;;;;20.66;68.31;100903.03;7399600;19;1853;-47
2023/05/31 02:50:13;;;;;;;;;;;;;;;20.70;68.27;100908.97;7396101;19;1529;-48
2023/05/31 02:52:41;;;;;;;;;;;;;;;20.68;68.09;100895.66;7399899;19;1560;-47
2023/05/31 02:55:12;;;;;;;;;;;;;;;20.64;68.51;100873.59;7398450;19;1444;-47
2023/05/31 02:57:40;;;;;;;;;;;;;;;20.69;68.28;100896.50;7399470;19;1508;-47
2023/05/31 03:00:13;;;;;;;;;;;;;;;20.68;68.52;100901.03;7398631;19;1499;-47
2023/05/31 03:02:42;;;;;;;;;;;;;;;20.66;68.04;100905.72;7398860;19;1441;-48
2023/05/31 03:05:11;;;;;;;;;;;;;;;20.67;67.96;100888.59;7398680;19;1137;-48
2023/05/31 03:07:39;;;;;;;;;;;;;;;20.68;68.16;100889.47;7398279;19;1845;-47
2023/05/31 03:10:08;;;;;;;;;;;;;;;20.64;68.38;100897.78;7398816;19;1466;-47
2023/05/31 03:12:39;;;;;;;;;;;;;;;20.64;68.48;100908.53;7398624;19;1165;-48
2023/05/31 03:15:08;;;;;;;;;;;;;;;20.71;68.25;100910.66;7397357;19;1193;-48
2023/05/31 03:17:37;;;;;;;;;;;;;;;20.70;68.50;100903.59;7396195;19;1252;-47
2023/05/31 03:20:06;;;;;;;;;;;;;;;20.61;68.25;100908.84;7398379;19;1396;-48
2023/05/31 03:22:35;;;;;;;;;;;;;;;20.64;68.27;100915.75;7398792;19;1467;-48
2023/05/31 03:25:03;;;;;;;;;;;;;;;20.61;68.87;100922.28;7396695;19;1201;-47
2023/05/31 03:27:32;;;;;;;;;;;;;;;20.60;68.56;100931.31;7397967;19;1849;-47
2023/05/31 03:30:02;;;;;;;;;;;;;;;20.65;68.66;100931.75;7398105;19;1520;-47
2023/05/31 03:32:31;;;;;;;;;;;;;;;20.63;68.60;100925.66;7399275;19;1444;-47
2023/05/31 03:34:59;;;;;;;;;;;;;;;20.74;68.28;100932.72;7397551;19;1283;-48
2023/05/31 03:37:27;;;;;;;;;;;;;;;20.79;68.46;100932.28;7397608;19;1501;-48
2023/05/31 03:39:55;;;;;;;;;;;;;;;20.79;68.26;100930.47;7398792;19;1393;-48
2023/05/31 03:42:24;;;;;;;;;;;;;;;20.83;68.14;100937.25;7397596;19;1710;-48
2023/05/31 03:44:52;;;;;;;;;;;;;;;20.96;67.38;100931.56;7398601;19;1231;-48
2023/05/31 03:47:23;;;;;;;;;;;;;;;21.04;67.58;100934.38;7396587;19;1870;-48
2023/05/31 03:49:51;;;;;;;;;;;;;;;21.13;67.02;100926.41;7397515;19;1546;-47
2023/05/31 03:52:20;;;;;;;;;;;;;;;21.15;67.31;100945.94;7397700;19;1496;-48
2023/05/31 03:54:49;;;;;;;;;;;;;;;21.02;67.61;100947.09;7397184;19;1555;-47
2023/05/31 03:57:17;;;;;;;;;;;;;;;20.95;68.17;100940.63;7396135;19;1388;-48
2023/05/31 03:59:45;;;;;;;;;;;;;;;21.06;67.14;100921.63;7397411;19;1177;-48
2023/05/31 04:02:14;;;;;;;;;;;;;;;21.12;67.26;100951.63;7398135;19;1577;-47
2023/05/31 04:04:44;;;;;;;;;;;;;;;21.24;67.07;100934.31;7397326;19;1824;-48
2023/05/31 04:07:13;;;;;;;;;;;;;;;21.12;67.41;100951.63;7396728;19;1857;-47
2023/05/31 04:09:41;;;;;;;;;;;;;;;21.17;67.07;100949.31;7397250;19;1373;-48
2023/05/31 04:12:10;;;;;;;;;;;;;;;21.09;67.79;100954.59;7397373;19;1553;-47
2023/05/31 04:14:38;;;;;;;;;;;;;;;21.30;67.23;100960.63;7396547;19;1164;-48
2023/05/31 04:17:07;;;;;;;;;;;;;;;21.17;67.98;100936.75;7397987;19;1224;-48
2023/05/31 04:19:36;;;;;;;;;;;;;;;21.17;67.97;100943.94;7398753;19;1991;-47
2023/05/31 04:22:06;;;;;;;;;;;;;;;21.03;67.84;100937.22;7395934;19;1771;-48
2023/05/31 04:24:35;;;;;;;;;;;;;;;21.08;67.86;100955.59;7395668;19;1509;-48
2023/05/31 04:27:06;;;;;;;;;;;;;;;20.97;68.73;100935.09;7397004;19;1852;-48
2023/05/31 04:29:35;;;;;;;;;;;;;;;20.92;68.98;100954.34;7396777;19;1407;-48
2023/05/31 04:32:03;;;;;;;;;;;;;;;21.01;69.05;100949.97;7397004;19;1237;-48
2023/05/31 04:34:31;;;;;;;;;;;;;;;20.92;70.07;100938.22;7396733;19;1310;-47
2023/05/31 04:37:00;;;;;;;;;;;;;;;21.00;69.61;100948.25;7396483;19;1577;-47
2023/05/31 04:39:31;;;;;;;;;;;;;;;21.16;68.96;100921.59;7397667;19;1283;-47
2023/05/31 04:41:59;;;;;;;;;;;;;;;21.22;69.18;100966.72;7395792;19;1473;-49
2023/05/31 04:44:27;;;;;;;;;;;;;;;21.09;68.63;100935.78;7395907;19;1462;-47
2023/05/31 04:46:56;;;;;;;;;;;;;;;20.92;69.76;100946.28;7392939;19;1857;-48
2023/05/31 04:49:25;;;;;;;;;;;;;;;21.41;67.98;100947.00;7394077;19;1446;-46
2023/05/31 04:51:53;;;;;;;;;;;;;;;21.57;67.59;100945.56;7395569;19;1390;-46
2023/05/31 04:54:21;;;;;;;;;;;;;;;21.24;68.40;100948.59;7395940;19;1454;-46
2023/05/31 04:56:52;;;;;;;;;;;;;;;21.17;69.05;100957.41;7394744;19;1442;-47
2023/05/31 04:59:20;;;;;;;;;;;;;;;21.31;68.25;100940.81;7394865;19;1580;-47
2023/05/31 05:01:49;;;;;;;;;;;;;;;21.38;67.79;100960.75;7391811;19;1672;-47
2023/05/31 05:04:17;;;;;;;;;;;;;;;21.49;67.67;100958.91;7390844;19;1263;-47
2023/05/31 05:06:45;;;;;;;;;;;;;;;21.56;67.55;100970.78;7390188;19;1201;-47
2023/05/31 05:09:14;;;;;;;;;;;;;;;21.60;67.10;100972.19;7389887;19;1860;-46
2023/05/31 05:11:42;;;;;;;;;;;;;;;21.40;67.82;100960.59;7390823;19;1506;-47
2023/05/31 05:14:13;;;;;;;;;;;;;;;21.48;67.61;100968.81;7389158;19;1543;-47
2023/05/31 05:16:41;;;;;;;;;;;;;;;21.66;67.08;100955.44;7391846;19;1518;-47
2023/05/31 05:19:09;;;;;;;;;;;;;;;21.77;66.52;100976.78;7391940;19;1389;-47
2023/05/31 05:21:38;;;;;;;;;;;;;;;21.75;66.80;100994.09;7391349;19;1462;-47
2023/05/31 05:24:06;;;;;;;;;;;;;;;21.76;66.61;100988.53;7389771;19;1832;-47
2023/05/31 05:26:35;;;;;;;;;;;;;;;21.66;66.48;100998.50;7389403;19;2140;-47
2023/05/31 05:29:03;;;;;;;;;;;;;;;21.71;66.29;100998.06;7390459;19;1849;-47
2023/05/31 05:31:34;;;;;;;;;;;;;;;21.68;66.81;101004.56;7393072;19;1454;-47
2023/05/31 05:34:02;;;;;;;;;;;;;;;21.87;66.77;101005.50;7394414;19;1947;-46
2023/05/31 05:36:30;;;;;;;;;;;;;;;21.85;66.59;101001.13;7395763;19;1038;-46
2023/05/31 05:39:03;;;;;;;;;;;;;;;21.90;66.47;101003.34;7394674;19;1275;-47
2023/05/31 05:41:32;;;;;;;;;;;;;;;21.77;66.68;101001.00;7400194;19;1789;-47
2023/05/31 05:44:00;;;;;;;;;;;;;;;21.88;66.93;101008.03;7402072;19;1394;-47
2023/05/31 05:46:29;;;;;;;;;;;;;;;21.87;66.66;101006.34;7401180;19;1414;-47
2023/05/31 05:49:00;;;;;;;;;;;;;;;21.81;67.16;101015.03;7401216;19;1908;-47
2023/05/31 05:51:28;;;;;;;;;;;;;;;21.82;66.96;101004.09;7402277;19;1477;-48
2023/05/31 05:53:56;;;;;;;;;;;;;;;21.86;66.80;101015.41;7402590;19;1852;-47
2023/05/31 05:56:26;;;;;;;;;;;;;;;21.80;67.21;101019.53;7403156;19;1726;-47
2023/05/31 05:58:54;;;;;;;;;;;;;;;21.95;66.64;101013.69;7403483;19;1011;-46
2023/05/31 06:01:26;;;;;;;;;;;;;;;21.90;66.54;101010.59;7401386;19;1874;-46
2023/05/31 06:03:55;;;;;;;;;;;;;;;21.61;67.72;101006.19;7400986;19;1734;-47
2023/05/31 06:06:26;;;;;;;;;;;;;;;21.91;66.80;101017.69;7402198;19;939;-47
2023/05/31 06:08:54;;;;;;;;;;;;;;;21.78;67.11;101018.84;7400421;19;1919;-48
2023/05/31 06:11:23;;;;;;;;;;;;;;;21.94;66.76;101002.06;7401002;19;1573;-47
2023/05/31 06:13:56;;;;;;;;;;;;;;;21.98;66.78;101008.00;7401162;19;1623;-47
2023/05/31 06:16:24;;;;;;;;;;;;;;;22.06;66.60;100991.94;7401640;19;1543;-47
2023/05/31 06:18:53;;;;;;;;;;;;;;;22.09;66.51;101004.28;7400532;19;1839;-47
2023/05/31 06:21:21;;;;;;;;;;;;;;;22.04;66.31;101002.00;7400871;19;1181;-46
2023/05/31 06:23:52;;;;;;;;;;;;;;;21.94;66.96;101009.28;7399475;19;1161;-47
2023/05/31 06:26:20;;;;;;;;;;;;;;;22.08;66.13;101006.09;7401239;19;1259;-47
2023/05/31 06:28:49;;;;;;;;;;;;;;;22.07;66.33;101003.56;7400278;19;1849;-47
2023/05/31 06:31:17;;;;;;;;;;;;;;;22.02;66.44;100987.84;7397682;19;1286;-46
2023/05/31 06:33:45;;;;;;;;;;;;;;;22.13;66.28;101003.81;7400697;19;1232;-47
2023/05/31 06:36:13;;;;;;;;;;;;;;;22.04;66.61;101008.25;7402856;19;1011;-47
2023/05/31 06:38:41;;;;;;;;;;;;;;;22.09;66.46;101009.66;7400586;19;1517;-47
2023/05/31 06:41:12;;;;;;;;;;;;;;;22.19;66.16;100999.66;7401346;19;1496;-46
2023/05/31 06:43:41;;;;;;;;;;;;;;;22.17;66.24;101017.81;7400073;19;1790;-46
2023/05/31 06:46:11;;;;;;;;;;;;;;;22.17;66.51;101002.50;7400255;19;1394;-47
2023/05/31 06:48:40;;;;;;;;;;;;;;;22.16;66.39;101010.72;7399092;19;1853;-46
2023/05/31 06:51:08;;;;;;;;;;;;;;;22.16;66.37;101006.22;7399890;19;1465;-47
2023/05/31 06:53:37;;;;;;;;;;;;;;;22.22;66.04;101011.00;7399490;19;1730;-47
2023/05/31 06:56:05;;;;;;;;;;;;;;;22.13;66.58;100995.72;7400783;19;1327;-47
2023/05/31 06:58:36;;;;;;;;;;;;;;;22.03;67.13;100995.78;7402560;19;975;-46
2023/05/31 07:01:04;;;;;;;;;;;;;;;22.25;66.61;101004.47;7399274;19;1907;-47
2023/05/31 07:03:33;;;;;;;;;;;;;;;22.08;66.91;101008.78;7401751;19;1485;-47
2023/05/31 07:06:01;;;;;;;;;;;;;;;22.04;67.07;101012.78;7401228;19;1216;-46
2023/05/31 07:08:29;;;;;;;;;;;;;;;22.06;66.54;101005.41;7399719;19;1847;-46
2023/05/31 07:10:57;;;;;;;;;;;;;;;22.08;66.87;101006.09;7400557;19;1737;-47
2023/05/31 07:13:26;;;;;;;;;;;;;;;21.89;67.45;101000.81;7400650;19;1817;-47
2023/05/31 07:15:57;;;;;;;;;;;;;;;22.14;66.41;101013.56;7400223;19;1374;-46
2023/05/31 07:18:25;;;;;;;;;;;;;;;22.16;66.64;101010.72;7399909;19;1769;-46
2023/05/31 07:20:56;;;;;;;;;;;;;;;22.19;66.42;101011.28;7398899;19;1366;-46
2023/05/31 07:23:24;;;;;;;;;;;;;;;22.15;66.20;101009.88;7398063;19;1370;-46
2023/05/31 07:25:53;;;;;;;;;;;;;;;22.27;66.24;101015.13;7401428;19;1027;-46
2023/05/31 07:28:21;;;;;;;;;;;;;;;22.09;65.43;101018.56;7397231;19;1868;-46
2023/05/31 07:30:50;;;;;;;;;;;;;;;22.15;66.11;101003.66;7399229;19;1774;-47
2023/05/31 07:33:20;;;;;;;;;;;;;;;22.29;65.82;101015.81;7398162;19;1765;-46
2023/05/31 07:35:49;;;;;;;;;;;;;;;22.22;66.06;101021.78;7400760;19;1020;-46
2023/05/31 07:38:17;;;;;;;;;;;;;;;22.23;66.11;101004.59;7398309;19;1296;-46
2023/05/31 07:40:45;;;;;;;;;;;;;;;22.12;66.29;101004.78;7399473;19;1336;-47
2023/05/31 07:43:14;;;;;;;;;;;;;;;22.12;65.86;101010.19;7398662;19;1290;-47
2023/05/31 07:45:42;;;;;;;;;;;;;;;22.07;64.55;101004.41;7399326;19;1237;-46
2023/05/31 07:48:10;;;;;;;;;;;;;;;22.00;66.10;101000.59;7398029;19;1852;-47
2023/05/31 07:50:41;;;;;;;;;;;;;;;21.92;66.11;100998.66;7398809;19;1201;-46
2023/05/31 07:53:10;;;;;;;;;;;;;;;22.00;65.86;101000.59;7398993;19;1342;-46
2023/05/31 07:55:38;;;;;;;;;;;;;;;21.99;65.91;101009.69;7399881;19;1478;-47
2023/05/31 07:58:07;;;;;;;;;;;;;;;22.05;65.07;101003.72;7398839;19;1185;-46
2023/05/31 08:00:35;;;;;;;;;;;;;;;21.85;65.90;100995.72;7397079;19;1391;-46
2023/05/31 08:03:03;;;;;;;;;;;;;;;21.65;66.63;100989.59;7397757;19;1338;-48
2023/05/31 08:05:31;;;;;;;;;;;;;;;21.72;66.51;101003.28;7400223;19;1049;-46
2023/05/31 08:08:02;;;;;;;;;;;;;;;21.75;66.85;101002.16;7398080;19;1841;-47
2023/05/31 08:10:31;;;;;;;;;;;;;;;21.80;66.20;101003.38;7400019;19;1014;-47
2023/05/31 08:12:59;;;;;;;;;;;;;;;21.74;66.40;100987.84;7396950;19;1612;-46
2023/05/31 08:15:27;;;;;;;;;;;;;;;21.77;66.58;100990.25;7396860;19;1735;-47
2023/05/31 08:17:55;;;;;;;;;;;;;;;21.72;66.78;100997.06;7397140;19;1727;-46
2023/05/31 08:20:24;;;;;;;;;;;;;;;21.65;66.63;100999.50;7397503;19;1228;-46
2023/05/31 08:22:52;;;;;;;;;;;;;;;21.65;66.74;100994.97;7398399;19;1486;-48
2023/05/31 08:25:24;;;;;;;;;;;;;;;21.65;66.93;100988.75;7397069;19;1263;-47
2023/05/31 08:27:53;;;;;;;;;;;;;;;21.70;66.66;100991.81;7397517;19;1750;-47
2023/05/31 08:30:21;;;;;;;;;;;;;;;21.65;66.63;100992.28;7395682;19;1858;-46
2023/05/31 08:32:49;;;;;;;;;;;;;;;21.67;66.68;101010.97;7396018;19;1805;-46
2023/05/31 08:35:18;;;;;;;;;;;;;;;21.48;66.70;101008.34;7396305;19;1431;-46
2023/05/31 08:37:46;;;;;;;;;;;;;;;21.58;66.68;100998.38;7396815;19;1844;-46
2023/05/31 08:40:14;;;;;;;;;;;;;;;21.67;66.47;101000.22;7396106;19;1418;-46
2023/05/31 08:42:49;;;;;;;;;;;;;;;21.63;66.37;100998.81;7396848;19;1561;-47
2023/05/31 08:45:20;;;;;;;;;;;;;;;21.60;66.67;100999.94;7398628;19;1026;-46
2023/05/31 08:47:51;;;;;;;;;;;;;;;21.53;66.72;101003.38;7399472;19;1240;-47
2023/05/31 08:50:20;;;;;;;;;;;;;;;21.61;66.39;100996.25;7395794;19;1853;-46
2023/05/31 08:52:49;;;;;;;;;;;;;;;21.70;66.37;100994.50;7397581;19;1746;-47
2023/05/31 08:55:20;;;;;;;;;;;;;;;21.81;65.75;101006.94;7396190;19;1391;-46
2023/05/31 08:57:51;;;;;;;;;;;;;;;21.80;65.85;100995.31;7396573;19;1482;-46
2023/05/31 09:00:21;;;;;;;;;;;;;;;21.86;65.90;101004.66;7395912;19;1498;-46
2023/05/31 09:02:50;;;;;;;;;;;;;;;21.88;65.64;100989.19;7397349;19;1126;-47
2023/05/31 09:05:18;;;;;;;;;;;;;;;21.77;66.33;100992.94;7396788;19;1156;-46
2023/05/31 09:07:47;;;;;;;;;;;;;;;21.94;65.61;100990.44;7395678;19;1249;-46
2023/05/31 09:10:16;;;;;;;;;;;;;;;21.93;65.97;100988.75;7394725;19;1855;-46
2023/05/31 09:12:45;;;;;;;;;;;;;;;21.91;65.87;100982.69;7397366;19;1569;-46
2023/05/31 09:15:17;;;;;;;;;;;;;;;21.81;66.28;100991.63;7393914;19;1369;-47
2023/05/31 09:17:46;;;;;;;;;;;;;;;21.75;65.96;100989.53;7398261;19;1422;-47
2023/05/31 09:20:16;;;;;;;;;;;;;;;21.81;65.84;100982.72;7396512;19;1991;-46
2023/05/31 09:22:44;;;;;;;;;;;;;;;21.79;65.67;100987.41;7396963;19;1566;-46
2023/05/31 09:25:12;;;;;;;;;;;;;;;21.65;66.23;100984.19;7394629;19;1991;-46
2023/05/31 09:27:41;;;;;;;;;;;;;;;21.69;66.55;100976.69;7396595;19;1801;-47
2023/05/31 09:30:10;;;;;;;;;;;;;;;21.75;65.92;100986.00;7394276;19;1857;-47
2023/05/31 09:32:42;;;;;;;;;;;;;;;21.95;65.60;100990.28;7395730;19;1714;-47
2023/05/31 09:35:12;;;;;;;;;;;;;;;21.80;65.30;100976.47;7397927;19;1560;-46
2023/05/31 09:37:44;;;;;;;;;;;;;;;21.52;65.21;100969.38;7394310;19;1775;-46
2023/05/31 09:40:14;;;;;;;;;;;;;;;21.35;65.54;100974.50;7395028;19;1663;-46
2023/05/31 09:42:49;;;;;;;;;;;;;;;21.52;64.30;100985.53;7395196;19;1586;-48
2023/05/31 09:45:17;;;;;;;;;;;;;;;21.60;64.98;100980.25;7394810;19;1523;-46
2023/05/31 09:47:49;;;;;;;;;;;;;;;21.72;64.87;100979.06;7395958;19;1575;-47
2023/05/31 09:50:18;;;;;;;;;;;;;;;21.83;64.59;100970.81;7393794;19;1924;-46
2023/05/31 09:52:47;;;;;;;;;;;;;;;21.92;64.57;100970.91;7394919;19;1212;-46
2023/05/31 09:55:15;;;;;;;;;;;;;;;21.82;63.97;100976.31;7393134;19;1445;-46
2023/05/31 09:57:45;;;;;;;;;;;;;;;21.73;64.83;100972.69;7395271;19;1112;-47
2023/05/31 10:00:15;;;;;;;;;;;;;;;21.83;65.35;100967.28;7394306;19;1834;-47
2023/05/31 10:02:44;;;;;;;;;;;;;;;21.72;64.55;100975.53;7395405;19;1411;-46
2023/05/31 10:05:16;;;;;;;;;;;;;;;21.67;65.09;100973.28;7394883;19;1861;-46
2023/05/31 10:07:44;;;;;;;;;;;;;;;21.56;65.13;100960.00;7394244;19;1444;-46
2023/05/31 10:10:13;;;;;;;;;;;;;;;21.63;65.24;100969.19;7391462;19;1842;-46
2023/05/31 10:12:45;;;;;;;;;;;;;;;21.69;65.04;100967.78;7394372;19;1530;-47
2023/05/31 10:15:14;;;;;;;;;;;;;;;21.63;65.39;100966.50;7393944;19;1547;-47
2023/05/31 10:17:47;;;;;;;;;;;;;;;21.63;65.24;100974.59;7395612;19;1607;-47
2023/05/31 10:20:19;;;;;;;;;;;;;;;21.65;65.17;100953.75;7393477;19;1612;-47
2023/05/31 10:22:50;;;;;;;;;;;;;;;21.77;64.63;100966.00;7395973;19;1512;-46
2023/05/31 10:25:23;;;;;;;;;;;;;;;21.71;65.08;100945.09;7393384;19;1762;-46
2023/05/31 10:27:53;;;;;;;;;;;;;;;21.70;64.76;100951.44;7400500;19;1180;-46
2023/05/31 10:30:26;;;;;;;;;;;;;;;21.64;65.12;100957.44;7398198;19;1867;-46
2023/05/31 10:32:56;;;;;;;;;;;;;;;21.68;64.56;100950.75;7400608;19;1704;-46
2023/05/31 10:35:27;;;;;;;;;;;;;;;21.68;64.87;100950.75;7402029;19;1129;-46
2023/05/31 10:37:56;;;;;;;;;;;;;;;21.60;64.85;100943.41;7400331;19;1551;-46
2023/05/31 10:40:27;;;;;;;;;;;;;;;21.67;64.47;100948.22;7401713;19;1549;-46
2023/05/31 10:42:58;;;;;;;;;;;;;;;21.60;64.55;100935.34;7401766;19;1816;-46
2023/05/31 10:45:29;;;;;;;;;;;;;;;21.64;64.33;100934.03;7401079;19;1406;-46
2023/05/31 10:47:59;;;;;;;;;;;;;;;21.61;63.96;100936.22;7400601;19;1913;-46
2023/05/31 10:50:30;;;;;;;;;;;;;;;21.53;64.00;100928.03;7398326;19;1863;-46
2023/05/31 10:53:11;;;;;;;;;;;;;;;21.89;63.33;100928.97;7402088;19;1469;-46
2023/05/31 10:55:43;;;;;;;;;;;;;;;21.80;63.10;100919.09;7400786;19;1345;-47
2023/05/31 10:58:26;;;;;;;;;;;;;;;21.77;63.61;100924.78;7401353;19;1434;-47
2023/05/31 11:00:55;;;;;;;;;;;;;;;21.77;63.61;100912.19;7401894;19;1421;-46
2023/05/31 11:03:24;;;;;;;;;;;;;;;21.76;63.07;100925.78;7401248;19;1990;-47
2023/05/31 11:06:03;;;;;;;;;;;;;;;21.53;63.24;100911.88;7399914;19;1951;-46
2023/05/31 11:08:32;;;;;;;;;;;;;;;21.87;62.71;100920.19;7401057;19;1170;-46
2023/05/31 11:11:15;;;;;;;;;;;;;;;21.71;63.18;100937.00;7398777;19;1855;-46
2023/05/31 11:13:58;;;;;;;;;;;;;;;21.64;63.46;100914.38;7401042;19;1722;-46
2023/05/31 11:16:26;;;;;;;;;;;;;;;21.58;63.83;100917.66;7401625;19;1483;-47
2023/05/31 11:19:04;;;;;;;;;;;;;;;21.58;63.79;100923.03;7400065;19;1438;-47
2023/05/31 11:21:47;;;;;;;;;;;;;;;21.56;63.94;100901.66;7400565;19;1694;-46
2023/05/31 11:24:30;;;;;;;;;;;;;;;21.59;64.04;100922.06;7399118;19;1382;-46
2023/05/31 11:27:00;;;;;;;;;;;;;;;21.55;64.33;100920.66;7400324;19;1350;-46
2023/05/31 11:29:48;;;;;;;;;;;;;;;21.55;63.83;100910.72;7399678;19;1839;-46
2023/05/31 11:32:17;;;;;;;;;;;;;;;21.59;63.97;100920.22;7400784;19;1797;-47
2023/05/31 11:34:53;;;;;;;;;;;;;;;21.64;64.38;100898.22;7400370;19;1924;-46
2023/05/31 11:37:22;;;;;;;;;;;;;;;21.55;63.96;100905.34;7400605;19;1491;-46
2023/05/31 11:39:53;;;;;;;;;;;;;;;21.61;63.65;100910.13;7395062;19;2218;-46
2023/05/31 11:42:23;;;;;;;;;;;;;;;21.51;63.80;100897.75;7400065;19;1464;-46
2023/05/31 11:44:52;;;;;;;;;;;;;;;21.73;63.23;100891.94;7399170;19;1376;-46
2023/05/31 11:47:21;;;;;;;;;;;;;;;21.65;63.71;100892.69;7400436;19;1865;-47
2023/05/31 11:49:50;;;;;;;;;;;;;;;21.56;63.80;100898.13;7399117;19;1869;-47
2023/05/31 11:52:18;;;;;;;;;;;;;;;21.52;64.07;100888.66;7399540;19;1551;-46
2023/05/31 11:54:48;;;;;;;;;;;;;;;21.56;64.47;100892.75;7399831;19;1328;-46
2023/05/31 11:57:20;;;;;;;;;;;;;;;21.61;64.10;100899.38;7399568;19;1729;-46
2023/05/31 11:59:49;;;;;;;;;;;;;;;21.68;63.95;100879.94;7399611;19;1336;-47
2023/05/31 12:02:17;;;;;;;;;;;;;;;21.55;64.29;100878.44;7398113;19;1769;-46
2023/05/31 12:04:46;;;;;;;;;;;;;;;21.51;64.13;100881.59;7397159;19;1457;-46
2023/05/31 12:07:17;;;;;;;;;;;;;;;21.59;64.00;100873.63;7397694;19;1659;-46
2023/05/31 12:09:45;;;;;;;;;;;;;;;21.57;63.88;100879.13;7398325;19;1859;-47
2023/05/31 12:12:14;;;;;;;;;;;;;;;21.56;64.39;100881.97;7397730;19;1299;-47
2023/05/31 12:14:54;;;;;;;;;;;;;;;21.49;64.40;100870.97;7397631;19;1480;-47
2023/05/31 12:17:23;;;;;;;;;;;;;;;21.59;63.49;100887.91;7399132;19;1761;-47
2023/05/31 12:19:51;;;;;;;;;;;;;;;21.57;64.17;100864.84;7399505;19;1094;-47
2023/05/31 12:22:20;;;;;;;;;;;;;;;21.59;63.43;100881.69;7399179;19;1896;-47
2023/05/31 12:24:50;;;;;;;;;;;;;;;21.59;63.22;100873.63;7397739;19;1857;-47
2023/05/31 12:27:18;;;;;;;;;;;;;;;21.64;63.13;100887.44;7398831;19;1920;-46
2023/05/31 12:29:47;;;;;;;;;;;;;;;21.67;63.34;100880.94;7398952;19;1858;-46
2023/05/31 12:32:19;;;;;;;;;;;;;;;21.58;62.64;100864.69;7397776;19;1595;-47
2023/05/31 12:34:47;;;;;;;;;;;;;;;21.67;61.88;100867.50;7397609;19;1473;-47
2023/05/31 12:37:15;;;;;;;;;;;;;;;21.76;61.98;100870.09;7397211;19;1320;-47
2023/05/31 12:39:45;;;;;;;;;;;;;;;21.74;62.00;100882.03;7399280;19;1333;-47
2023/05/31 12:42:14;;;;;;;;;;;;;;;21.70;62.49;100870.69;7398177;19;1208;-47
2023/05/31 12:44:46;;;;;;;;;;;;;;;21.74;62.45;100866.72;7397853;19;1849;-47
2023/05/31 12:47:14;;;;;;;;;;;;;;;21.61;62.60;100860.84;7396618;19;1210;-46
2023/05/31 12:49:46;;;;;;;;;;;;;;;21.66;62.72;100863.94;7396523;19;1848;-47
2023/05/31 12:52:17;;;;;;;;;;;;;;;21.72;62.04;100857.94;7394204;19;1449;-47
2023/05/31 12:54:45;;;;;;;;;;;;;;;21.76;61.71;100859.31;7397097;19;1442;-46
2023/05/31 12:57:14;;;;;;;;;;;;;;;21.66;61.72;100855.84;7396643;19;1434;-47
2023/05/31 12:59:43;;;;;;;;;;;;;;;21.62;61.50;100857.16;7396162;19;1520;-46